Days, Mississippi
Current Conditions -  °F | °C
As of 6:54 AM on Wednesday 22 Oct 2014 (Local Time) from KMEM Reporting Station
Clear Clear  
Wind Chill: 52°   Ceiling: Unl
Heat Index: 52°   Visibility: 10mi
Dew Point: 45°   Wind: 5mph
Humidity: 77%   Direction: 60°ENE
Pressure: 30.21"   Gusts: NA
Location:  34.9155°N, 90.1878°W
Report Text: KMEM 221154Z 06004KT 10SM CLR 11/07 A3021 RMK AO2 SLP227 T01110072 10156 20111 51024 $
Loading
Personal Weather Stations






























Interactive Weather Map
Tropical Storm Tracking
New forecast layout! Learn more

10-Day Weather Forecast

Advertisements
Track Severe Weather on mobile